createdAt,value
2023-01-29T16:31:40.789Z,59.08
2023-01-29T16:34:10.241Z,58.70
2023-01-29T16:36:36.532Z,59.30
2023-01-29T16:39:06.373Z,59.58
2023-01-29T16:41:38.743Z,60.50
2023-01-29T16:44:16.731Z,60.58
2023-01-29T16:46:47.540Z,60.02
2023-01-29T16:49:26.131Z,60.36
2023-01-29T16:51:53.159Z,60.64
2023-01-29T16:54:23.994Z,60.97
2023-01-29T16:56:55.435Z,60.82
2023-01-29T16:59:29.660Z,61.08
2023-01-29T17:01:56.117Z,61.20
2023-01-29T17:04:22.665Z,61.22
2023-01-29T17:06:54.333Z,61.23
2023-01-29T17:09:43.520Z,61.15
2023-01-29T17:12:18.787Z,61.60
2023-01-29T17:14:53.899Z,61.51
2023-01-29T17:17:20.174Z,61.36
2023-01-29T17:19:46.347Z,61.74
2023-01-29T17:22:15.359Z,61.82
2023-01-29T17:24:42.297Z,61.79
2023-01-29T17:27:17.969Z,61.66
2023-01-29T17:29:44.195Z,61.70
2023-01-29T17:32:10.579Z,61.92
2023-01-29T17:34:36.800Z,61.72
2023-01-29T17:37:02.912Z,61.70
2023-01-29T17:39:29.109Z,62.06
2023-01-29T17:41:57.897Z,62.52
2023-01-29T17:44:26.456Z,62.80
2023-01-29T17:46:52.567Z,63.04
2023-01-29T17:49:25.552Z,63.13
2023-01-29T17:51:53.244Z,63.30
2023-01-29T17:54:20.164Z,63.52
2023-01-29T17:56:46.760Z,63.39
2023-01-29T17:59:20.913Z,63.26
2023-01-29T18:01:47.631Z,63.56
2023-01-29T18:04:14.187Z,63.61
2023-01-29T18:06:41.849Z,63.36
2023-01-29T18:09:08.139Z,63.39
2023-01-29T18:11:38.059Z,63.39
2023-01-29T18:14:13.813Z,63.62
2023-01-29T18:16:42.312Z,63.20
2023-01-29T18:19:14.956Z,63.29
2023-01-29T18:21:41.325Z,63.36
2023-01-29T18:24:08.278Z,63.25
2023-01-29T18:26:36.012Z,63.26
2023-01-29T18:29:02.440Z,63.43
2023-01-29T18:31:28.668Z,63.42
2023-01-29T18:33:54.887Z,63.19
2023-01-29T18:36:21.025Z,63.22
2023-01-29T18:38:47.206Z,63.18
2023-01-29T18:41:13.349Z,63.37
2023-01-29T18:43:40.912Z,63.35
2023-01-29T18:46:08.291Z,63.20
2023-01-29T18:48:35.152Z,63.40
2023-01-29T18:51:01.437Z,63.46
2023-01-29T18:53:27.722Z,63.49
2023-01-29T18:55:58.825Z,63.30
2023-01-29T18:58:33.816Z,63.21
2023-01-29T19:01:09.083Z,63.32
2023-01-29T19:03:36.317Z,63.56
2023-01-29T19:06:03.476Z,64.28
2023-01-29T19:08:30.423Z,64.84
2023-01-29T19:10:57.941Z,65.93
2023-01-29T19:13:24.114Z,65.86
2023-01-29T19:15:50.275Z,65.39
2023-01-29T19:18:16.791Z,65.29
2023-01-29T19:20:43.043Z,64.92
2023-01-29T19:23:09.678Z,64.88
2023-01-29T19:25:39.828Z,64.57
2023-01-29T19:28:07.332Z,64.44
2023-01-29T19:30:33.844Z,64.99
2023-01-29T19:33:00.113Z,65.09
2023-01-29T19:35:26.433Z,64.49
2023-01-29T19:37:52.573Z,64.61
2023-01-29T19:40:19.091Z,64.41
2023-01-29T19:42:45.214Z,64.46
2023-01-29T19:45:11.570Z,64.54
2023-01-29T19:47:42.213Z,64.73
2023-01-29T19:50:10.571Z,64.43
2023-01-29T19:52:52.284Z,64.46
2023-01-29T19:55:20.564Z,64.31
2023-01-29T19:57:47.197Z,63.89
2023-01-29T20:00:15.601Z,64.11
2023-01-29T20:02:41.810Z,63.78
2023-01-29T20:05:10.069Z,63.65
2023-01-29T20:07:36.799Z,63.34
2023-01-29T20:10:03.613Z,63.39
2023-01-29T20:12:30.328Z,63.56
2023-01-29T20:14:56.856Z,63.25
2023-01-29T20:17:23.070Z,63.14
2023-01-29T20:19:49.215Z,63.33
2023-01-29T20:22:15.339Z,63.11
2023-01-29T20:24:42.687Z,63.25
2023-01-29T20:27:10.836Z,63.28
2023-01-29T20:29:37.801Z,63.60
2023-01-29T20:32:05.372Z,63.57
2023-01-29T20:34:31.958Z,63.28
2023-01-29T20:36:58.181Z,63.68
2023-01-29T20:39:24.303Z,63.47
2023-01-29T20:41:50.646Z,63.39
2023-01-29T20:44:17.020Z,63.53
2023-01-29T20:46:43.240Z,63.33
2023-01-29T20:49:09.531Z,63.51
2023-01-29T20:51:35.711Z,63.66
2023-01-29T20:54:01.849Z,63.61
2023-01-29T20:56:37.412Z,63.64
2023-01-29T20:59:08.686Z,63.70
2023-01-29T21:01:35.194Z,63.68
2023-01-29T21:04:01.546Z,63.66
2023-01-29T21:06:29.639Z,63.55
2023-01-29T21:08:55.902Z,63.73
2023-01-29T21:11:22.472Z,63.43
2023-01-29T21:13:48.636Z,63.52
2023-01-29T21:16:14.863Z,63.46
2023-01-29T21:18:41.078Z,63.79
2023-01-29T21:21:07.280Z,63.56
2023-01-29T21:23:33.466Z,63.55
2023-01-29T21:26:04.409Z,63.60
2023-01-29T21:28:30.601Z,63.60
2023-01-29T21:31:08.538Z,63.65
2023-01-29T21:33:35.117Z,63.85
2023-01-29T21:36:01.957Z,63.56
2023-01-29T21:38:28.440Z,63.78
2023-01-29T21:41:02.458Z,63.69
2023-01-29T21:43:28.885Z,63.68
2023-01-29T21:45:56.830Z,63.72
2023-01-29T21:48:23.497Z,63.58
2023-01-29T21:50:49.844Z,63.96
2023-01-29T21:53:16.036Z,63.62
2023-01-29T21:55:42.483Z,63.58
2023-01-29T21:58:08.650Z,57.16
2023-01-29T22:00:35.031Z,59.44
2023-01-29T22:03:01.236Z,60.51
2023-01-29T22:05:29.198Z,61.36
2023-01-29T22:07:55.907Z,59.40
2023-01-29T22:10:22.534Z,58.36
2023-01-29T22:12:48.907Z,60.24
2023-01-29T22:15:15.668Z,59.40
2023-01-29T22:17:42.476Z,58.44
2023-01-29T22:20:13.802Z,57.17
2023-01-29T22:22:40.460Z,55.94
2023-01-29T22:25:06.828Z,56.72
2023-01-29T22:27:33.907Z,57.59
2023-01-29T22:30:00.282Z,59.27
2023-01-29T22:32:26.527Z,58.51
2023-01-29T22:34:52.673Z,58.35
2023-01-29T22:37:18.846Z,58.50
2023-01-29T22:39:46.060Z,58.58
2023-01-29T22:42:12.193Z,58.67
2023-01-29T22:44:38.378Z,58.83
2023-01-29T22:47:04.525Z,59.06
2023-01-29T22:49:31.529Z,59.52
2023-01-29T22:52:10.193Z,59.45
2023-01-29T22:54:40.599Z,59.39
2023-01-29T22:57:07.110Z,59.54
2023-01-29T22:59:33.786Z,59.58
2023-01-29T23:02:00.089Z,59.88
2023-01-29T23:04:26.487Z,59.77
2023-01-29T23:06:52.628Z,60.21
2023-01-29T23:09:18.780Z,60.37
2023-01-29T23:11:44.946Z,60.36
2023-01-29T23:14:11.060Z,60.40
2023-01-29T23:16:37.196Z,60.49
2023-01-29T23:19:03.360Z,60.49
2023-01-29T23:21:29.563Z,60.39
2023-01-29T23:23:58.391Z,60.69
2023-01-29T23:26:43.902Z,60.65
2023-01-29T23:29:10.384Z,60.80
2023-01-29T23:31:36.608Z,60.73
2023-01-29T23:34:02.844Z,60.80
2023-01-29T23:36:28.987Z,60.77
2023-01-29T23:38:55.200Z,60.71
2023-01-29T23:41:21.531Z,60.79
2023-01-29T23:43:47.648Z,61.14
2023-01-29T23:46:13.865Z,60.75
2023-01-29T23:48:40.065Z,61.10
2023-01-29T23:51:06.346Z,61.37
2023-01-29T23:53:32.491Z,61.40
2023-01-29T23:56:04.104Z,61.37
2023-01-29T23:58:31.236Z,61.43
